createdAt,value
2022-11-30T00:01:13.561Z,32.27
2022-11-30T00:03:40.026Z,34.87
2022-11-30T00:06:07.848Z,35.40
2022-11-30T00:08:35.307Z,35.07
2022-11-30T00:11:17.934Z,39.23
2022-11-30T00:13:45.260Z,33.83
2022-11-30T00:16:11.700Z,35.00
2022-11-30T00:18:38.250Z,34.10
2022-11-30T00:21:08.563Z,33.80
2022-11-30T00:23:37.785Z,39.73
2022-11-30T00:26:09.399Z,36.67
2022-11-30T00:28:36.257Z,36.33
2022-11-30T00:31:05.552Z,33.23
2022-11-30T00:33:36.581Z,34.73
2022-11-30T00:36:05.488Z,40.27
2022-11-30T00:38:32.244Z,33.67
2022-11-30T00:40:59.225Z,36.13
2022-11-30T00:43:25.714Z,42.40
2022-11-30T00:45:52.227Z,39.93
2022-11-30T00:48:18.762Z,37.67
2022-11-30T00:50:45.372Z,43.87
2022-11-30T00:53:11.893Z,39.47
2022-11-30T00:55:38.468Z,36.50
2022-11-30T00:58:07.044Z,35.73
2022-11-30T01:00:33.930Z,40.30
2022-11-30T01:03:00.514Z,43.20
2022-11-30T01:05:26.944Z,41.90
2022-11-30T01:07:53.485Z,41.07
2022-11-30T01:10:20.082Z,45.47
2022-11-30T01:12:46.535Z,33.67
2022-11-30T01:15:12.954Z,39.17
2022-11-30T01:17:39.511Z,38.17
2022-11-30T01:20:07.919Z,36.07
2022-11-30T01:22:35.747Z,35.93
2022-11-30T01:25:02.677Z,33.43
2022-11-30T01:27:29.123Z,37.77
2022-11-30T01:29:55.622Z,33.83
2022-11-30T01:32:22.304Z,37.73
2022-11-30T01:34:49.080Z,37.13
2022-11-30T01:37:15.861Z,41.10
2022-11-30T01:39:42.384Z,41.77
2022-11-30T01:42:15.065Z,39.10
2022-11-30T01:44:52.203Z,34.57
2022-11-30T01:47:25.049Z,38.43
2022-11-30T01:49:55.262Z,34.73
2022-11-30T01:52:51.004Z,36.57
2022-11-30T01:55:23.976Z,34.97
2022-11-30T01:58:02.343Z,35.07
2022-11-30T02:00:29.021Z,38.87
2022-11-30T02:03:00.831Z,38.03
2022-11-30T02:05:27.971Z,38.33
2022-11-30T02:07:55.045Z,36.93
2022-11-30T02:10:26.001Z,36.03
2022-11-30T02:13:23.399Z,33.77
2022-11-30T02:15:55.462Z,36.80
2022-11-30T02:18:27.430Z,36.47
2022-11-30T02:21:07.094Z,39.83
2022-11-30T02:24:01.392Z,41.07
2022-11-30T02:27:05.396Z,40.10
2022-11-30T02:29:37.958Z,32.27
2022-11-30T02:32:15.845Z,33.53
2022-11-30T02:34:43.644Z,34.93
2022-11-30T02:37:12.520Z,37.13
2022-11-30T02:39:38.953Z,35.20
2022-11-30T02:42:11.829Z,34.53
2022-11-30T02:44:38.493Z,38.50
2022-11-30T02:47:26.461Z,37.13
2022-11-30T02:50:06.296Z,37.87
2022-11-30T02:52:34.032Z,36.83
2022-11-30T02:55:06.514Z,41.70
2022-11-30T02:57:33.912Z,39.37
2022-11-30T03:00:02.552Z,36.00
2022-11-30T03:02:29.106Z,37.87
2022-11-30T03:04:55.532Z,40.30
2022-11-30T03:07:22.393Z,38.00
2022-11-30T03:09:48.859Z,33.87
2022-11-30T03:12:15.421Z,36.87
2022-11-30T03:14:42.075Z,34.33
2022-11-30T03:17:08.637Z,39.73
2022-11-30T03:19:35.430Z,37.80
2022-11-30T03:22:02.106Z,37.30
2022-11-30T03:24:28.597Z,39.73
2022-11-30T03:26:55.114Z,38.20
2022-11-30T03:29:22.007Z,37.20
2022-11-30T03:31:48.627Z,39.10
2022-11-30T03:34:15.296Z,38.57
2022-11-30T03:36:41.857Z,38.83
2022-11-30T03:39:09.583Z,35.37
2022-11-30T03:41:36.082Z,35.77
2022-11-30T03:44:02.595Z,35.63
2022-11-30T03:46:29.209Z,40.63
2022-11-30T03:48:55.734Z,38.70
2022-11-30T03:51:22.482Z,39.97
2022-11-30T03:53:49.013Z,35.97
2022-11-30T03:56:15.645Z,38.20
2022-11-30T03:58:42.747Z,38.80
2022-11-30T04:01:15.520Z,42.60
2022-11-30T04:03:42.730Z,44.97
2022-11-30T04:06:10.599Z,39.60
2022-11-30T04:08:37.728Z,41.23
2022-11-30T04:11:04.998Z,40.20
2022-11-30T04:13:35.196Z,45.90
2022-11-30T04:16:02.348Z,36.30
2022-11-30T04:18:30.173Z,43.93
2022-11-30T04:20:58.235Z,42.63
2022-11-30T04:23:25.652Z,39.80
2022-11-30T04:25:52.200Z,40.37
2022-11-30T04:28:19.198Z,37.03
2022-11-30T04:30:46.313Z,40.07
2022-11-30T04:33:14.193Z,39.67
2022-11-30T04:35:42.452Z,36.30
2022-11-30T04:38:09.206Z,37.50
2022-11-30T04:40:39.710Z,37.57
2022-11-30T04:43:06.458Z,39.30
2022-11-30T04:45:35.466Z,35.50
2022-11-30T04:48:03.332Z,35.97
2022-11-30T04:50:29.926Z,37.43
2022-11-30T04:52:56.515Z,42.57
2022-11-30T04:55:23.338Z,41.97
2022-11-30T04:57:50.014Z,35.63
2022-11-30T05:00:17.565Z,36.60
2022-11-30T05:02:50.586Z,34.43
2022-11-30T05:05:18.912Z,36.10
2022-11-30T05:07:49.545Z,38.33
2022-11-30T05:10:16.222Z,36.93
2022-11-30T05:12:42.871Z,33.77
2022-11-30T05:15:09.987Z,35.90
2022-11-30T05:17:36.813Z,40.67
2022-11-30T05:20:03.651Z,38.53
2022-11-30T05:22:30.127Z,41.77
2022-11-30T05:24:56.626Z,35.17
2022-11-30T05:27:23.142Z,33.00
2022-11-30T05:29:49.632Z,31.40
2022-11-30T05:32:16.104Z,33.53
2022-11-30T05:34:50.741Z,30.07
2022-11-30T05:37:18.976Z,30.83
2022-11-30T05:39:45.575Z,32.40
2022-11-30T05:42:12.056Z,38.43
2022-11-30T05:44:38.519Z,32.80
2022-11-30T05:47:05.149Z,33.00
2022-11-30T05:49:31.829Z,35.37
2022-11-30T05:51:58.308Z,30.30
2022-11-30T05:54:24.789Z,31.57
2022-11-30T05:56:54.685Z,27.80
2022-11-30T05:59:21.691Z,30.10
2022-11-30T06:01:48.713Z,33.43
2022-11-30T06:04:15.808Z,35.43
2022-11-30T06:06:42.299Z,33.83
2022-11-30T06:09:08.744Z,32.43
2022-11-30T06:11:35.718Z,30.50
2022-11-30T06:14:02.209Z,32.67
2022-11-30T06:16:28.820Z,30.83
2022-11-30T06:18:55.597Z,30.83
2022-11-30T06:21:24.749Z,28.47
2022-11-30T06:23:52.763Z,33.43
2022-11-30T06:26:19.248Z,28.17
2022-11-30T06:28:48.524Z,33.30
2022-11-30T06:31:16.362Z,30.47
2022-11-30T06:33:43.219Z,31.23
2022-11-30T06:36:10.528Z,29.07
2022-11-30T06:38:38.151Z,27.27
2022-11-30T06:41:06.215Z,32.07
2022-11-30T06:43:35.216Z,30.30
2022-11-30T06:46:02.860Z,33.70
2022-11-30T06:48:29.401Z,35.77
2022-11-30T06:50:55.941Z,36.70
2022-11-30T06:53:22.579Z,34.73
2022-11-30T06:55:49.274Z,32.70
2022-11-30T06:58:15.876Z,33.23
2022-11-30T07:00:42.895Z,34.03
2022-11-30T07:03:11.817Z,35.97
2022-11-30T07:05:44.044Z,37.07
2022-11-30T07:08:11.930Z,46.47
2022-11-30T07:10:42.173Z,38.33
2022-11-30T07:13:19.295Z,37.77
2022-11-30T07:15:46.074Z,40.90
2022-11-30T07:18:12.847Z,38.63
2022-11-30T07:20:40.233Z,38.93
2022-11-30T07:23:25.793Z,41.83
2022-11-30T07:26:09.689Z,41.40
2022-11-30T07:28:40.837Z,35.33
2022-11-30T07:31:19.844Z,36.53
2022-11-30T07:33:47.435Z,43.93
2022-11-30T07:36:14.341Z,43.47
2022-11-30T07:38:41.095Z,35.37
2022-11-30T07:41:07.857Z,40.10
2022-11-30T07:43:35.748Z,41.23
2022-11-30T07:46:02.662Z,40.37
2022-11-30T07:48:29.700Z,39.20
2022-11-30T07:51:03.329Z,38.30
2022-11-30T07:53:31.192Z,40.13
2022-11-30T07:56:08.503Z,41.23
2022-11-30T07:58:35.841Z,39.17
2022-11-30T08:01:03.602Z,41.97
2022-11-30T08:03:36.433Z,40.47
2022-11-30T08:06:07.268Z,37.07
2022-11-30T08:08:36.425Z,35.40
2022-11-30T08:11:03.934Z,43.20
2022-11-30T08:13:30.584Z,40.93
2022-11-30T08:16:01.556Z,41.90
2022-11-30T08:18:28.062Z,41.23
2022-11-30T08:20:58.384Z,39.77
2022-11-30T08:23:25.675Z,39.93
2022-11-30T08:25:52.118Z,38.80
2022-11-30T08:28:18.665Z,40.00
2022-11-30T08:30:45.379Z,38.50
2022-11-30T08:33:12.238Z,39.87
2022-11-30T08:35:38.794Z,37.87
2022-11-30T08:38:05.401Z,38.53
2022-11-30T08:40:31.815Z,42.30
2022-11-30T08:42:59.035Z,40.37
2022-11-30T08:45:25.869Z,42.10
2022-11-30T08:47:54.503Z,40.60
2022-11-30T08:50:21.009Z,38.77
2022-11-30T08:52:47.554Z,45.63
2022-11-30T08:55:14.021Z,42.97
2022-11-30T08:57:40.660Z,39.73
2022-11-30T09:00:09.246Z,45.17
2022-11-30T09:02:37.589Z,39.30
2022-11-30T09:05:04.310Z,42.17
2022-11-30T09:07:31.095Z,41.93
2022-11-30T09:09:57.554Z,39.63
2022-11-30T09:12:24.132Z,37.70
2022-11-30T09:14:56.031Z,41.83
2022-11-30T09:17:24.634Z,41.33
2022-11-30T09:19:51.246Z,42.73
2022-11-30T09:22:18.368Z,41.97
2022-11-30T09:24:45.241Z,41.23
2022-11-30T09:27:12.423Z,41.60
2022-11-30T09:29:38.847Z,43.63
2022-11-30T09:32:05.771Z,43.80
2022-11-30T09:34:32.528Z,42.17
2022-11-30T09:36:59.010Z,41.57
2022-11-30T09:39:25.616Z,39.13
2022-11-30T09:42:07.169Z,34.60
2022-11-30T09:44:50.480Z,35.07
2022-11-30T09:50:33.782Z,43.67
2022-11-30T09:53:06.849Z,43.67
2022-11-30T09:55:39.332Z,38.83
2022-11-30T09:58:06.430Z,41.70
2022-11-30T10:00:36.947Z,41.00
2022-11-30T10:03:06.157Z,41.13
2022-11-30T10:05:46.895Z,37.40
2022-11-30T10:08:36.973Z,36.43
2022-11-30T10:11:28.527Z,37.03
2022-11-30T10:14:49.645Z,37.73
2022-11-30T10:17:37.605Z,38.80
2022-11-30T10:20:20.056Z,40.80
2022-11-30T10:23:03.137Z,34.50
2022-11-30T10:25:54.333Z,35.63
2022-11-30T10:28:47.777Z,34.87
2022-11-30T10:31:15.694Z,26.83
2022-11-30T10:33:51.048Z,28.07
2022-11-30T10:36:37.097Z,31.07
2022-11-30T10:39:14.248Z,31.67
2022-11-30T10:41:48.008Z,28.27
2022-11-30T10:44:26.005Z,24.70
2022-11-30T10:46:59.714Z,25.50
2022-11-30T10:49:29.119Z,30.30
2022-11-30T10:52:01.107Z,24.77
2022-11-30T10:54:30.202Z,24.87
2022-11-30T10:56:58.947Z,23.40
2022-11-30T10:59:31.086Z,28.40
2022-11-30T11:01:57.603Z,28.03
2022-11-30T11:04:27.913Z,30.60
2022-11-30T11:06:57.437Z,31.30
2022-11-30T11:09:27.423Z,27.43
2022-11-30T11:12:05.904Z,27.77
2022-11-30T11:14:37.758Z,28.77
2022-11-30T11:17:23.683Z,26.73
2022-11-30T11:19:50.905Z,34.87
2022-11-30T11:22:25.190Z,30.43
2022-11-30T11:24:54.454Z,26.97
2022-11-30T11:27:24.680Z,29.60
2022-11-30T11:30:06.123Z,25.20
2022-11-30T11:32:32.760Z,30.53
2022-11-30T11:34:59.633Z,26.23
2022-11-30T11:37:31.688Z,28.23
2022-11-30T11:40:16.858Z,30.93
2022-11-30T11:42:53.800Z,26.80
2022-11-30T11:45:22.533Z,29.30
2022-11-30T11:48:02.004Z,28.37
2022-11-30T11:51:06.257Z,36.67
2022-11-30T11:53:46.283Z,35.30
2022-11-30T11:56:24.786Z,28.70
2022-11-30T11:58:56.949Z,29.27
2022-11-30T12:01:56.382Z,27.77
2022-11-30T12:04:34.313Z,27.47
2022-11-30T12:07:02.919Z,37.07
2022-11-30T12:09:35.731Z,40.00
2022-11-30T12:12:02.725Z,33.60
2022-11-30T12:14:30.444Z,34.10
2022-11-30T12:17:06.397Z,29.10
2022-11-30T12:20:00.774Z,33.43
2022-11-30T12:22:42.652Z,31.53
2022-11-30T12:25:23.348Z,39.03
2022-11-30T12:28:11.475Z,37.20
2022-11-30T12:31:17.839Z,29.23
2022-11-30T12:33:44.301Z,32.60
2022-11-30T12:36:20.107Z,26.60
2022-11-30T12:38:46.545Z,33.70
2022-11-30T12:41:23.050Z,34.47
2022-11-30T12:44:10.998Z,30.27
2022-11-30T12:46:55.249Z,35.17
2022-11-30T12:49:26.787Z,30.30
2022-11-30T12:52:03.863Z,33.87
2022-11-30T12:54:40.333Z,31.73
2022-11-30T12:57:12.978Z,35.83
2022-11-30T12:59:48.141Z,35.23
2022-11-30T13:02:14.731Z,39.67
2022-11-30T13:04:45.968Z,35.73
2022-11-30T13:07:49.684Z,40.33
2022-11-30T13:10:22.549Z,33.33
2022-11-30T13:12:51.371Z,39.50
2022-11-30T13:15:20.799Z,36.10
2022-11-30T13:17:47.873Z,31.27
2022-11-30T13:20:39.865Z,34.17
2022-11-30T13:23:15.022Z,36.20
2022-11-30T13:26:08.968Z,33.37
2022-11-30T13:28:41.734Z,36.07
2022-11-30T13:31:14.611Z,35.53
2022-11-30T13:33:53.293Z,32.53
2022-11-30T13:36:22.818Z,32.60
2022-11-30T13:39:09.725Z,32.03
2022-11-30T13:41:37.251Z,32.87
2022-11-30T13:44:04.187Z,32.93
2022-11-30T13:46:31.229Z,30.93
2022-11-30T13:49:19.857Z,31.97
2022-11-30T13:51:50.235Z,32.47
2022-11-30T13:54:38.901Z,40.17
2022-11-30T13:57:30.202Z,32.03
2022-11-30T14:00:01.893Z,41.97
2022-11-30T14:02:42.060Z,46.53
2022-11-30T14:05:22.588Z,46.87
2022-11-30T14:07:51.991Z,39.83
2022-11-30T14:10:39.217Z,34.87
2022-11-30T14:13:29.822Z,35.43
2022-11-30T14:16:00.804Z,33.63
2022-11-30T14:18:30.068Z,36.37
2022-11-30T14:21:32.166Z,40.00
2022-11-30T14:24:06.523Z,32.23
2022-11-30T14:26:39.577Z,35.70
2022-11-30T14:29:16.888Z,32.57
2022-11-30T14:31:58.644Z,29.70
2022-11-30T14:34:28.738Z,32.77
2022-11-30T14:37:22.244Z,33.60
2022-11-30T14:39:49.781Z,31.07
2022-11-30T14:42:35.510Z,35.43
2022-11-30T14:45:02.012Z,36.97
2022-11-30T14:47:31.440Z,36.53
2022-11-30T14:50:02.087Z,36.17
2022-11-30T14:52:52.526Z,34.53
2022-11-30T14:55:27.827Z,36.47
2022-11-30T14:58:16.225Z,36.67
2022-11-30T15:00:44.736Z,33.93
2022-11-30T15:03:25.309Z,35.63
2022-11-30T15:05:57.707Z,39.00
2022-11-30T15:08:33.314Z,32.10
2022-11-30T15:11:10.123Z,37.37
2022-11-30T15:13:41.634Z,37.90
2022-11-30T15:16:51.110Z,47.10
2022-11-30T15:19:26.661Z,36.03
2022-11-30T15:21:54.692Z,34.43
2022-11-30T15:24:22.044Z,29.17
2022-11-30T15:27:21.972Z,29.97
2022-11-30T15:29:58.821Z,47.40
2022-11-30T15:32:25.754Z,42.07
2022-11-30T15:34:57.737Z,36.93
2022-11-30T15:37:31.700Z,30.30
2022-11-30T15:40:00.914Z,29.67
2022-11-30T15:42:39.878Z,35.27
2022-11-30T15:45:26.683Z,32.47
2022-11-30T15:47:54.880Z,32.37
2022-11-30T15:50:30.618Z,32.90
2022-11-30T15:53:03.021Z,33.63
2022-11-30T15:55:51.249Z,34.37
2022-11-30T15:58:39.500Z,34.47
2022-11-30T16:01:09.769Z,34.83
2022-11-30T16:03:56.534Z,30.33
2022-11-30T16:06:25.176Z,30.13
2022-11-30T16:08:52.055Z,33.73
2022-11-30T16:11:19.826Z,32.03
2022-11-30T16:13:47.432Z,37.63
2022-11-30T16:16:21.691Z,36.30
2022-11-30T16:18:48.547Z,35.27
2022-11-30T16:21:17.288Z,39.23
2022-11-30T16:23:44.341Z,41.93
2022-11-30T16:26:43.132Z,34.20
2022-11-30T16:29:04.562Z,35.33
2022-11-30T16:31:31.303Z,34.17
2022-11-30T16:33:57.887Z,33.03
2022-11-30T16:36:24.702Z,57.83
2022-11-30T16:38:52.236Z,77.97
2022-11-30T16:41:19.813Z,83.70
2022-11-30T16:43:47.974Z,45.33
2022-11-30T16:46:17.290Z,33.63
2022-11-30T16:48:43.869Z,34.93
2022-11-30T16:51:22.960Z,36.17
2022-11-30T16:53:49.511Z,35.10
2022-11-30T16:56:16.567Z,34.00
2022-11-30T16:58:44.408Z,32.47
2022-11-30T17:01:37.637Z,32.20
2022-11-30T17:04:11.498Z,34.50
2022-11-30T17:06:37.980Z,36.13
2022-11-30T17:09:04.626Z,33.93
2022-11-30T17:11:36.400Z,45.37
2022-11-30T17:14:03.501Z,28.63
2022-11-30T17:16:30.521Z,33.10
2022-11-30T17:18:57.026Z,30.70
2022-11-30T17:21:26.998Z,35.00
2022-11-30T17:23:53.826Z,31.50
2022-11-30T17:26:20.890Z,31.37
2022-11-30T17:28:47.521Z,51.73
2022-11-30T17:31:14.601Z,37.60
2022-11-30T17:33:47.788Z,33.57
2022-11-30T17:36:16.565Z,32.90
2022-11-30T17:38:44.267Z,32.30
2022-11-30T17:41:19.100Z,35.27
2022-11-30T17:43:47.093Z,36.57
2022-11-30T17:46:18.364Z,37.90
2022-11-30T17:48:45.496Z,32.40
2022-11-30T17:51:13.285Z,30.53
2022-11-30T17:53:41.331Z,27.80
2022-11-30T17:56:16.087Z,23.60
2022-11-30T17:58:44.812Z,21.87
2022-11-30T18:01:21.155Z,21.53
2022-11-30T18:03:48.951Z,23.20
2022-11-30T18:06:16.047Z,24.03
2022-11-30T18:08:42.803Z,25.87
2022-11-30T18:11:20.656Z,25.37
2022-11-30T18:13:51.835Z,22.93
2022-11-30T18:16:21.582Z,22.97
2022-11-30T18:18:48.963Z,24.47
2022-11-30T18:21:18.155Z,25.17
2022-11-30T18:23:44.726Z,22.00
2022-11-30T18:26:14.000Z,25.50
2022-11-30T18:28:41.157Z,27.97
2022-11-30T18:31:07.859Z,23.80
2022-11-30T18:33:38.308Z,22.87
2022-11-30T18:36:08.958Z,28.37
2022-11-30T18:38:38.548Z,24.43
2022-11-30T18:41:05.501Z,24.07
2022-11-30T18:43:34.093Z,23.03
2022-11-30T18:46:04.981Z,28.37
2022-11-30T18:48:31.766Z,19.07
2022-11-30T18:50:58.333Z,17.83
2022-11-30T18:53:24.916Z,17.07
2022-11-30T18:55:51.807Z,17.70
2022-11-30T18:58:18.463Z,16.30
2022-11-30T19:00:45.004Z,16.43
2022-11-30T19:03:11.870Z,14.57
2022-11-30T19:05:40.569Z,18.20
2022-11-30T19:08:09.072Z,16.80
2022-11-30T19:10:38.053Z,27.10
2022-11-30T19:13:05.800Z,19.97
2022-11-30T19:15:39.832Z,18.57
2022-11-30T19:18:07.640Z,16.17
2022-11-30T19:20:41.410Z,17.77
2022-11-30T19:23:08.655Z,15.87
2022-11-30T19:25:38.760Z,16.63
2022-11-30T19:28:05.902Z,19.47
2022-11-30T19:30:32.579Z,18.63
2022-11-30T19:32:59.107Z,12.77
2022-11-30T19:35:25.849Z,14.80
2022-11-30T19:37:52.664Z,23.43
2022-11-30T19:40:19.297Z,18.13
2022-11-30T19:42:45.788Z,17.00
2022-11-30T19:45:12.363Z,15.30
2022-11-30T19:47:38.844Z,16.73
2022-11-30T19:50:05.763Z,18.57
2022-11-30T19:52:32.218Z,19.60
2022-11-30T19:54:58.650Z,18.03
2022-11-30T19:57:25.076Z,19.33
2022-11-30T19:59:51.586Z,17.53
2022-11-30T20:02:18.120Z,20.93
2022-11-30T20:04:44.783Z,16.60
2022-11-30T20:07:11.227Z,17.43
2022-11-30T20:09:38.148Z,19.00
2022-11-30T20:12:04.936Z,17.43
2022-11-30T20:14:31.367Z,14.83
2022-11-30T20:16:57.882Z,15.33
2022-11-30T20:19:24.338Z,17.17
2022-11-30T20:21:51.177Z,14.57
2022-11-30T20:24:17.685Z,15.77
2022-11-30T20:26:44.604Z,14.83
2022-11-30T20:29:14.707Z,14.93
2022-11-30T20:31:42.094Z,17.27
2022-11-30T20:34:09.036Z,16.87
2022-11-30T20:36:36.040Z,15.23
2022-11-30T20:39:03.049Z,16.47
2022-11-30T20:41:29.682Z,15.50
2022-11-30T20:43:56.738Z,16.43
2022-11-30T20:46:31.728Z,17.73
2022-11-30T20:48:58.903Z,12.77
2022-11-30T20:51:35.888Z,13.67
2022-11-30T20:54:07.059Z,18.07
2022-11-30T20:56:36.513Z,17.27
2022-11-30T20:59:05.830Z,18.00
2022-11-30T21:01:32.648Z,18.53
2022-11-30T21:04:02.090Z,13.70
2022-11-30T21:06:31.305Z,17.00
2022-11-30T21:08:58.489Z,16.20
2022-11-30T21:11:25.615Z,16.93
2022-11-30T21:13:52.308Z,16.00
2022-11-30T21:16:26.870Z,19.43
2022-11-30T21:18:54.609Z,25.50
2022-11-30T21:21:23.319Z,25.37
2022-11-30T21:23:50.218Z,27.97
2022-11-30T21:26:25.069Z,22.70
2022-11-30T21:28:53.716Z,21.40
2022-11-30T21:31:21.645Z,27.67
2022-11-30T21:33:52.673Z,22.37
2022-11-30T21:36:20.560Z,19.33
2022-11-30T21:38:47.030Z,24.43
2022-11-30T21:41:14.329Z,19.27
2022-11-30T21:43:41.475Z,18.67
2022-11-30T21:46:13.800Z,21.80
2022-11-30T21:48:42.095Z,21.47
2022-11-30T21:51:10.652Z,19.70
2022-11-30T21:53:39.363Z,18.63
2022-11-30T21:56:07.567Z,18.83
2022-11-30T21:58:35.251Z,22.57
2022-11-30T22:01:02.461Z,16.87
2022-11-30T22:03:29.333Z,18.50
2022-11-30T22:06:03.754Z,19.20
2022-11-30T22:08:31.108Z,21.13
2022-11-30T22:11:01.814Z,17.13
2022-11-30T22:13:29.602Z,18.07
2022-11-30T22:16:04.709Z,17.27
2022-11-30T22:18:31.593Z,19.23
2022-11-30T22:21:06.641Z,16.17
2022-11-30T22:23:35.188Z,17.73
2022-11-30T22:26:20.867Z,18.70
2022-11-30T22:28:49.356Z,17.73
2022-11-30T22:31:17.625Z,17.77
2022-11-30T22:33:45.214Z,17.40
2022-11-30T22:36:17.320Z,16.83
2022-11-30T22:38:43.823Z,15.20
2022-11-30T22:41:15.189Z,15.60
2022-11-30T22:43:46.241Z,19.20
2022-11-30T22:46:18.887Z,15.40
2022-11-30T22:48:46.256Z,17.50
2022-11-30T22:51:20.388Z,16.93
2022-11-30T22:53:47.941Z,18.83
2022-11-30T22:56:22.509Z,16.50
2022-11-30T22:58:50.326Z,18.53
2022-11-30T23:01:19.248Z,17.63
2022-11-30T23:03:47.067Z,19.10
2022-11-30T23:06:15.725Z,19.47
2022-11-30T23:08:42.645Z,20.17
2022-11-30T23:11:12.014Z,18.50
2022-11-30T23:13:39.726Z,16.57
2022-11-30T23:16:06.921Z,18.10
2022-11-30T23:18:39.331Z,18.50
2022-11-30T23:21:09.337Z,21.30
2022-11-30T23:23:35.747Z,15.57
2022-11-30T23:26:13.707Z,15.17
2022-11-30T23:28:41.379Z,20.10
2022-11-30T23:31:33.788Z,17.33
2022-11-30T23:33:59.439Z,18.07
2022-11-30T23:36:25.928Z,18.47
2022-11-30T23:39:04.599Z,17.77
2022-11-30T23:41:31.159Z,18.97
2022-11-30T23:43:57.799Z,19.47
2022-11-30T23:46:24.390Z,19.57
2022-11-30T23:48:51.196Z,18.83
2022-11-30T23:51:18.021Z,19.83
2022-11-30T23:53:44.687Z,19.13
2022-11-30T23:56:14.204Z,22.17
2022-11-30T23:58:40.733Z,20.27
